sensor_id;sensor_type;location;lat;lon;timestamp;P1;durP1;ratioP1;P2;durP2;ratioP2
19705;SDS011;10003;52.506;4.700;2023-04-28T00:00:04;8.67;;;4.80;;
19705;SDS011;10003;52.506;4.700;2023-04-28T00:02:34;6.07;;;3.73;;
19705;SDS011;10003;52.506;4.700;2023-04-28T00:05:04;8.70;;;5.13;;
19705;SDS011;10003;52.506;4.700;2023-04-28T00:07:33;8.83;;;6.57;;
19705;SDS011;10003;52.506;4.700;2023-04-28T00:10:02;6.97;;;5.40;;
19705;SDS011;10003;52.506;4.700;2023-04-28T00:12:31;9.30;;;6.00;;
19705;SDS011;10003;52.506;4.700;2023-04-28T00:14:59;6.83;;;4.93;;
19705;SDS011;10003;52.506;4.700;2023-04-28T00:17:28;8.83;;;6.37;;
19705;SDS011;10003;52.506;4.700;2023-04-28T00:19:57;9.57;;;5.73;;
19705;SDS011;10003;52.506;4.700;2023-04-28T00:22:27;6.17;;;5.40;;
19705;SDS011;10003;52.506;4.700;2023-04-28T00:24:56;7.43;;;6.63;;
19705;SDS011;10003;52.506;4.700;2023-04-28T00:27:25;5.93;;;4.97;;
19705;SDS011;10003;52.506;4.700;2023-04-28T00:29:53;6.97;;;6.27;;
19705;SDS011;10003;52.506;4.700;2023-04-28T00:32:21;6.40;;;5.07;;
19705;SDS011;10003;52.506;4.700;2023-04-28T00:34:50;8.20;;;6.03;;
19705;SDS011;10003;52.506;4.700;2023-04-28T00:37:18;5.40;;;4.70;;
19705;SDS011;10003;52.506;4.700;2023-04-28T00:39:48;8.20;;;6.27;;
19705;SDS011;10003;52.506;4.700;2023-04-28T00:42:21;6.10;;;5.10;;
19705;SDS011;10003;52.506;4.700;2023-04-28T00:44:50;7.70;;;6.20;;
19705;SDS011;10003;52.506;4.700;2023-04-28T00:47:18;5.10;;;3.47;;
19705;SDS011;10003;52.506;4.700;2023-04-28T00:49:47;6.80;;;4.97;;
19705;SDS011;10003;52.506;4.700;2023-04-28T00:52:15;6.80;;;4.60;;
19705;SDS011;10003;52.506;4.700;2023-04-28T00:54:44;8.20;;;6.93;;
19705;SDS011;10003;52.506;4.700;2023-04-28T00:57:15;8.50;;;6.17;;
19705;SDS011;10003;52.506;4.700;2023-04-28T00:59:43;7.23;;;4.93;;
19705;SDS011;10003;52.506;4.700;2023-04-28T01:02:12;5.57;;;5.00;;
19705;SDS011;10003;52.506;4.700;2023-04-28T01:04:43;8.90;;;6.17;;
19705;SDS011;10003;52.506;4.700;2023-04-28T01:07:12;7.67;;;5.40;;
19705;SDS011;10003;52.506;4.700;2023-04-28T01:09:40;7.20;;;5.90;;
19705;SDS011;10003;52.506;4.700;2023-04-28T01:12:09;8.03;;;5.97;;
19705;SDS011;10003;52.506;4.700;2023-04-28T01:14:39;5.70;;;4.73;;
19705;SDS011;10003;52.506;4.700;2023-04-28T01:17:07;6.43;;;5.70;;
19705;SDS011;10003;52.506;4.700;2023-04-28T01:19:36;7.47;;;5.93;;
19705;SDS011;10003;52.506;4.700;2023-04-28T01:22:04;5.83;;;4.57;;
19705;SDS011;10003;52.506;4.700;2023-04-28T01:24:34;6.83;;;5.00;;
19705;SDS011;10003;52.506;4.700;2023-04-28T01:27:02;4.00;;;3.47;;
19705;SDS011;10003;52.506;4.700;2023-04-28T01:29:31;4.87;;;4.27;;
19705;SDS011;10003;52.506;4.700;2023-04-28T01:31:59;8.67;;;6.23;;
19705;SDS011;10003;52.506;4.700;2023-04-28T01:34:28;7.40;;;6.43;;
19705;SDS011;10003;52.506;4.700;2023-04-28T01:36:56;7.37;;;5.90;;
19705;SDS011;10003;52.506;4.700;2023-04-28T01:39:25;6.60;;;4.70;;
19705;SDS011;10003;52.506;4.700;2023-04-28T01:41:54;4.27;;;3.57;;
19705;SDS011;10003;52.506;4.700;2023-04-28T01:44:23;4.47;;;4.00;;
19705;SDS011;10003;52.506;4.700;2023-04-28T01:46:51;18.00;;;5.70;;
19705;SDS011;10003;52.506;4.700;2023-04-28T01:49:20;3.20;;;2.63;;
19705;SDS011;10003;52.506;4.700;2023-04-28T01:51:49;7.13;;;5.07;;
19705;SDS011;10003;52.506;4.700;2023-04-28T01:54:17;6.93;;;4.30;;
19705;SDS011;10003;52.506;4.700;2023-04-28T01:56:46;7.30;;;4.97;;
19705;SDS011;10003;52.506;4.700;2023-04-28T01:59:15;20.23;;;6.10;;
19705;SDS011;10003;52.506;4.700;2023-04-28T02:01:45;5.07;;;4.67;;
19705;SDS011;10003;52.506;4.700;2023-04-28T02:04:13;4.87;;;3.90;;
19705;SDS011;10003;52.506;4.700;2023-04-28T02:06:43;3.50;;;3.07;;
19705;SDS011;10003;52.506;4.700;2023-04-28T02:09:11;7.23;;;6.17;;
19705;SDS011;10003;52.506;4.700;2023-04-28T02:11:39;5.90;;;5.07;;
19705;SDS011;10003;52.506;4.700;2023-04-28T02:14:08;6.07;;;4.07;;
19705;SDS011;10003;52.506;4.700;2023-04-28T02:16:38;6.40;;;4.27;;
19705;SDS011;10003;52.506;4.700;2023-04-28T02:19:06;16.07;;;6.77;;
19705;SDS011;10003;52.506;4.700;2023-04-28T02:21:35;7.97;;;5.50;;
19705;SDS011;10003;52.506;4.700;2023-04-28T02:24:03;7.37;;;3.90;;
19705;SDS011;10003;52.506;4.700;2023-04-28T02:26:32;4.13;;;3.73;;
19705;SDS011;10003;52.506;4.700;2023-04-28T02:29:01;6.53;;;5.53;;
19705;SDS011;10003;52.506;4.700;2023-04-28T02:31:30;8.43;;;7.00;;
19705;SDS011;10003;52.506;4.700;2023-04-28T02:34:00;5.77;;;4.90;;
19705;SDS011;10003;52.506;4.700;2023-04-28T02:36:29;3.53;;;3.20;;
19705;SDS011;10003;52.506;4.700;2023-04-28T02:38:57;7.53;;;5.33;;
19705;SDS011;10003;52.506;4.700;2023-04-28T02:41:26;6.53;;;5.33;;
19705;SDS011;10003;52.506;4.700;2023-04-28T02:43:56;6.67;;;5.47;;
19705;SDS011;10003;52.506;4.700;2023-04-28T02:46:24;7.37;;;5.73;;
19705;SDS011;10003;52.506;4.700;2023-04-28T02:48:53;6.43;;;5.13;;
19705;SDS011;10003;52.506;4.700;2023-04-28T02:51:23;7.37;;;5.00;;
19705;SDS011;10003;52.506;4.700;2023-04-28T02:53:52;7.80;;;5.63;;
19705;SDS011;10003;52.506;4.700;2023-04-28T02:56:20;10.00;;;7.20;;
19705;SDS011;10003;52.506;4.700;2023-04-28T02:58:48;10.80;;;8.23;;
19705;SDS011;10003;52.506;4.700;2023-04-28T03:01:17;6.07;;;4.03;;
19705;SDS011;10003;52.506;4.700;2023-04-28T03:03:45;5.10;;;4.13;;
19705;SDS011;10003;52.506;4.700;2023-04-28T03:06:14;5.90;;;4.10;;
19705;SDS011;10003;52.506;4.700;2023-04-28T03:08:44;7.60;;;5.77;;
19705;SDS011;10003;52.506;4.700;2023-04-28T03:11:12;11.73;;;7.40;;
19705;SDS011;10003;52.506;4.700;2023-04-28T03:13:41;8.17;;;6.67;;
19705;SDS011;10003;52.506;4.700;2023-04-28T03:16:10;11.17;;;5.93;;
19705;SDS011;10003;52.506;4.700;2023-04-28T03:18:38;10.60;;;6.93;;
19705;SDS011;10003;52.506;4.700;2023-04-28T03:21:06;5.23;;;4.53;;
19705;SDS011;10003;52.506;4.700;2023-04-28T03:23:35;6.63;;;5.97;;
19705;SDS011;10003;52.506;4.700;2023-04-28T03:26:05;6.77;;;6.07;;
19705;SDS011;10003;52.506;4.700;2023-04-28T03:28:33;3.30;;;2.60;;
19705;SDS011;10003;52.506;4.700;2023-04-28T03:31:01;7.13;;;4.77;;
19705;SDS011;10003;52.506;4.700;2023-04-28T03:33:30;8.43;;;6.40;;
19705;SDS011;10003;52.506;4.700;2023-04-28T03:35:58;6.07;;;5.40;;
19705;SDS011;10003;52.506;4.700;2023-04-28T03:38:27;8.63;;;5.70;;
19705;SDS011;10003;52.506;4.700;2023-04-28T03:40:55;8.87;;;7.00;;
19705;SDS011;10003;52.506;4.700;2023-04-28T03:43:25;7.33;;;4.83;;
19705;SDS011;10003;52.506;4.700;2023-04-28T03:45:53;1.97;;;1.87;;
19705;SDS011;10003;52.506;4.700;2023-04-28T03:48:22;4.00;;;3.43;;
19705;SDS011;10003;52.506;4.700;2023-04-28T03:50:50;4.90;;;3.20;;
19705;SDS011;10003;52.506;4.700;2023-04-28T03:53:18;4.07;;;3.60;;
19705;SDS011;10003;52.506;4.700;2023-04-28T03:55:47;4.63;;;4.20;;
19705;SDS011;10003;52.506;4.700;2023-04-28T03:58:16;2.83;;;2.63;;
19705;SDS011;10003;52.506;4.700;2023-04-28T04:00:45;4.93;;;3.93;;
19705;SDS011;10003;52.506;4.700;2023-04-28T04:03:15;1.20;;;1.13;;
19705;SDS011;10003;52.506;4.700;2023-04-28T04:05:47;11.70;;;5.70;;
19705;SDS011;10003;52.506;4.700;2023-04-28T04:08:15;6.90;;;4.77;;
19705;SDS011;10003;52.506;4.700;2023-04-28T04:10:44;7.10;;;6.40;;
19705;SDS011;10003;52.506;4.700;2023-04-28T04:13:12;5.93;;;4.70;;
19705;SDS011;10003;52.506;4.700;2023-04-28T04:15:40;9.50;;;7.80;;
19705;SDS011;10003;52.506;4.700;2023-04-28T04:18:10;6.60;;;5.70;;
19705;SDS011;10003;52.506;4.700;2023-04-28T04:20:40;8.33;;;6.20;;
19705;SDS011;10003;52.506;4.700;2023-04-28T04:23:08;12.23;;;7.03;;
19705;SDS011;10003;52.506;4.700;2023-04-28T04:25:36;3.03;;;2.77;;
19705;SDS011;10003;52.506;4.700;2023-04-28T04:28:05;4.23;;;3.47;;
19705;SDS011;10003;52.506;4.700;2023-04-28T04:30:33;4.13;;;3.27;;
19705;SDS011;10003;52.506;4.700;2023-04-28T04:33:02;5.40;;;4.87;;
19705;SDS011;10003;52.506;4.700;2023-04-28T04:35:32;10.73;;;5.37;;
19705;SDS011;10003;52.506;4.700;2023-04-28T04:38:01;4.77;;;4.07;;
19705;SDS011;10003;52.506;4.700;2023-04-28T04:40:30;3.70;;;3.33;;
19705;SDS011;10003;52.506;4.700;2023-04-28T04:42:58;6.93;;;4.73;;
19705;SDS011;10003;52.506;4.700;2023-04-28T04:45:27;9.67;;;7.07;;
19705;SDS011;10003;52.506;4.700;2023-04-28T04:47:55;12.97;;;6.77;;
19705;SDS011;10003;52.506;4.700;2023-04-28T04:50:26;6.13;;;4.63;;
19705;SDS011;10003;52.506;4.700;2023-04-28T04:52:56;5.37;;;3.80;;
19705;SDS011;10003;52.506;4.700;2023-04-28T04:55:24;6.23;;;4.57;;
19705;SDS011;10003;52.506;4.700;2023-04-28T04:57:52;9.67;;;5.73;;
19705;SDS011;10003;52.506;4.700;2023-04-28T05:00:21;6.27;;;5.67;;
19705;SDS011;10003;52.506;4.700;2023-04-28T05:02:49;8.43;;;5.80;;
19705;SDS011;10003;52.506;4.700;2023-04-28T05:05:18;8.50;;;6.13;;
19705;SDS011;10003;52.506;4.700;2023-04-28T05:07:48;5.67;;;4.30;;
19705;SDS011;10003;52.506;4.700;2023-04-28T05:10:18;3.40;;;2.97;;
19705;SDS011;10003;52.506;4.700;2023-04-28T05:12:47;5.63;;;4.27;;
19705;SDS011;10003;52.506;4.700;2023-04-28T05:15:15;7.40;;;4.57;;
19705;SDS011;10003;52.506;4.700;2023-04-28T05:17:43;13.43;;;7.67;;
19705;SDS011;10003;52.506;4.700;2023-04-28T05:20:12;7.17;;;4.40;;
19705;SDS011;10003;52.506;4.700;2023-04-28T05:22:41;6.90;;;4.07;;
19705;SDS011;10003;52.506;4.700;2023-04-28T05:25:09;1.93;;;1.83;;
19705;SDS011;10003;52.506;4.700;2023-04-28T05:27:39;2.47;;;2.20;;
19705;SDS011;10003;52.506;4.700;2023-04-28T05:30:08;1.53;;;1.47;;
19705;SDS011;10003;52.506;4.700;2023-04-28T05:32:37;2.83;;;2.63;;
19705;SDS011;10003;52.506;4.700;2023-04-28T05:35:05;2.83;;;2.00;;
19705;SDS011;10003;52.506;4.700;2023-04-28T05:37:34;3.80;;;3.20;;
19705;SDS011;10003;52.506;4.700;2023-04-28T05:40:03;1.40;;;1.40;;
19705;SDS011;10003;52.506;4.700;2023-04-28T05:42:33;1.23;;;1.23;;
19705;SDS011;10003;52.506;4.700;2023-04-28T05:45:03;1.07;;;1.07;;
19705;SDS011;10003;52.506;4.700;2023-04-28T05:47:32;2.13;;;2.00;;
19705;SDS011;10003;52.506;4.700;2023-04-28T05:50:00;5.73;;;4.80;;
19705;SDS011;10003;52.506;4.700;2023-04-28T05:52:29;2.20;;;2.10;;
19705;SDS011;10003;52.506;4.700;2023-04-28T05:54:57;2.77;;;2.50;;
19705;SDS011;10003;52.506;4.700;2023-04-28T05:57:25;4.23;;;3.83;;
19705;SDS011;10003;52.506;4.700;2023-04-28T05:59:59;1.90;;;1.80;;
19705;SDS011;10003;52.506;4.700;2023-04-28T06:02:28;3.70;;;3.23;;
19705;SDS011;10003;52.506;4.700;2023-04-28T06:04:57;5.77;;;3.40;;
19705;SDS011;10003;52.506;4.700;2023-04-28T06:07:26;7.63;;;4.23;;
19705;SDS011;10003;52.506;4.700;2023-04-28T06:09:55;7.33;;;4.90;;
19705;SDS011;10003;52.506;4.700;2023-04-28T06:12:26;5.27;;;3.67;;
19705;SDS011;10003;52.506;4.700;2023-04-28T06:14:54;2.27;;;2.07;;
19705;SDS011;10003;52.506;4.700;2023-04-28T06:17:23;3.17;;;2.40;;
19705;SDS011;10003;52.506;4.700;2023-04-28T06:19:53;6.03;;;2.47;;
19705;SDS011;10003;52.506;4.700;2023-04-28T06:22:22;5.70;;;4.77;;
19705;SDS011;10003;52.506;4.700;2023-04-28T06:24:50;4.93;;;3.13;;
19705;SDS011;10003;52.506;4.700;2023-04-28T06:27:19;4.57;;;3.63;;
19705;SDS011;10003;52.506;4.700;2023-04-28T06:29:47;6.90;;;4.80;;
19705;SDS011;10003;52.506;4.700;2023-04-28T06:32:16;7.33;;;5.80;;
19705;SDS011;10003;52.506;4.700;2023-04-28T06:34:45;4.20;;;3.30;;
19705;SDS011;10003;52.506;4.700;2023-04-28T06:37:15;4.97;;;3.73;;
19705;SDS011;10003;52.506;4.700;2023-04-28T06:39:44;3.90;;;3.03;;
19705;SDS011;10003;52.506;4.700;2023-04-28T06:42:13;12.67;;;6.00;;
19705;SDS011;10003;52.506;4.700;2023-04-28T06:44:43;9.67;;;7.33;;
19705;SDS011;10003;52.506;4.700;2023-04-28T06:47:12;8.87;;;6.10;;
19705;SDS011;10003;52.506;4.700;2023-04-28T06:49:40;8.73;;;6.10;;
19705;SDS011;10003;52.506;4.700;2023-04-28T06:52:10;7.57;;;5.67;;
19705;SDS011;10003;52.506;4.700;2023-04-28T06:54:41;6.87;;;6.00;;
19705;SDS011;10003;52.506;4.700;2023-04-28T06:57:10;8.00;;;7.10;;
19705;SDS011;10003;52.506;4.700;2023-04-28T06:59:38;6.40;;;5.73;;
19705;SDS011;10003;52.506;4.700;2023-04-28T07:02:09;2.30;;;2.10;;
19705;SDS011;10003;52.506;4.700;2023-04-28T07:04:37;7.63;;;4.33;;
19705;SDS011;10003;52.506;4.700;2023-04-28T07:07:06;5.20;;;4.00;;
19705;SDS011;10003;52.506;4.700;2023-04-28T07:09:35;7.83;;;5.83;;
19705;SDS011;10003;52.506;4.700;2023-04-28T07:12:05;7.07;;;4.97;;
19705;SDS011;10003;52.506;4.700;2023-04-28T07:14:34;7.83;;;5.60;;
19705;SDS011;10003;52.506;4.700;2023-04-28T07:17:02;8.67;;;5.03;;
19705;SDS011;10003;52.506;4.700;2023-04-28T07:19:31;7.30;;;5.67;;
19705;SDS011;10003;52.506;4.700;2023-04-28T07:21:59;7.07;;;5.67;;
19705;SDS011;10003;52.506;4.700;2023-04-28T07:24:28;8.17;;;5.70;;
19705;SDS011;10003;52.506;4.700;2023-04-28T07:26:56;7.83;;;7.03;;
19705;SDS011;10003;52.506;4.700;2023-04-28T07:29:26;9.97;;;6.27;;
19705;SDS011;10003;52.506;4.700;2023-04-28T07:32:00;7.93;;;6.70;;
19705;SDS011;10003;52.506;4.700;2023-04-28T07:34:32;6.23;;;5.10;;
19705;SDS011;10003;52.506;4.700;2023-04-28T07:37:02;8.97;;;5.67;;
19705;SDS011;10003;52.506;4.700;2023-04-28T07:39:31;5.43;;;4.90;;
19705;SDS011;10003;52.506;4.700;2023-04-28T07:42:00;4.30;;;3.40;;
19705;SDS011;10003;52.506;4.700;2023-04-28T07:44:30;7.70;;;5.30;;
19705;SDS011;10003;52.506;4.700;2023-04-28T07:46:59;7.27;;;6.00;;
19705;SDS011;10003;52.506;4.700;2023-04-28T07:49:28;4.40;;;4.00;;
19705;SDS011;10003;52.506;4.700;2023-04-28T07:51:59;6.63;;;4.43;;
19705;SDS011;10003;52.506;4.700;2023-04-28T07:54:28;11.50;;;6.30;;
19705;SDS011;10003;52.506;4.700;2023-04-28T07:56:56;8.67;;;6.97;;
19705;SDS011;10003;52.506;4.700;2023-04-28T07:59:24;5.00;;;4.50;;
19705;SDS011;10003;52.506;4.700;2023-04-28T08:01:55;6.60;;;5.53;;
19705;SDS011;10003;52.506;4.700;2023-04-28T08:04:23;7.37;;;6.57;;
19705;SDS011;10003;52.506;4.700;2023-04-28T08:06:53;7.70;;;5.40;;
19705;SDS011;10003;52.506;4.700;2023-04-28T08:09:21;10.57;;;7.23;;
19705;SDS011;10003;52.506;4.700;2023-04-28T08:11:50;5.90;;;5.17;;
19705;SDS011;10003;52.506;4.700;2023-04-28T08:14:18;12.37;;;7.10;;
19705;SDS011;10003;52.506;4.700;2023-04-28T08:16:47;8.87;;;7.97;;
19705;SDS011;10003;52.506;4.700;2023-04-28T08:19:17;12.13;;;8.73;;
19705;SDS011;10003;52.506;4.700;2023-04-28T08:21:46;11.43;;;7.00;;
19705;SDS011;10003;52.506;4.700;2023-04-28T08:24:15;11.40;;;8.10;;
19705;SDS011;10003;52.506;4.700;2023-04-28T08:26:44;8.70;;;6.97;;
19705;SDS011;10003;52.506;4.700;2023-04-28T08:29:12;18.47;;;9.37;;
19705;SDS011;10003;52.506;4.700;2023-04-28T08:31:40;14.33;;;9.23;;
19705;SDS011;10003;52.506;4.700;2023-04-28T08:34:09;12.70;;;5.47;;
19705;SDS011;10003;52.506;4.700;2023-04-28T08:36:42;10.27;;;8.07;;
19705;SDS011;10003;52.506;4.700;2023-04-28T08:39:10;14.93;;;9.87;;
19705;SDS011;10003;52.506;4.700;2023-04-28T08:41:39;10.27;;;6.63;;
19705;SDS011;10003;52.506;4.700;2023-04-28T08:44:08;12.13;;;9.17;;
19705;SDS011;10003;52.506;4.700;2023-04-28T08:46:37;13.93;;;10.83;;
19705;SDS011;10003;52.506;4.700;2023-04-28T08:49:10;10.37;;;8.37;;
19705;SDS011;10003;52.506;4.700;2023-04-28T08:51:43;12.57;;;9.53;;
19705;SDS011;10003;52.506;4.700;2023-04-28T08:54:13;14.23;;;9.80;;
19705;SDS011;10003;52.506;4.700;2023-04-28T08:56:52;8.43;;;7.57;;
19705;SDS011;10003;52.506;4.700;2023-04-28T08:59:20;11.33;;;8.73;;
19705;SDS011;10003;52.506;4.700;2023-04-28T09:01:49;14.57;;;9.87;;
19705;SDS011;10003;52.506;4.700;2023-04-28T09:04:17;17.47;;;10.87;;
19705;SDS011;10003;52.506;4.700;2023-04-28T09:06:49;6.07;;;5.07;;
19705;SDS011;10003;52.506;4.700;2023-04-28T09:09:20;7.10;;;4.43;;
19705;SDS011;10003;52.506;4.700;2023-04-28T09:11:51;11.00;;;8.73;;
19705;SDS011;10003;52.506;4.700;2023-04-28T09:14:21;11.43;;;10.27;;
19705;SDS011;10003;52.506;4.700;2023-04-28T09:16:50;13.67;;;10.27;;
19705;SDS011;10003;52.506;4.700;2023-04-28T09:19:19;10.13;;;9.07;;
19705;SDS011;10003;52.506;4.700;2023-04-28T09:21:50;13.10;;;6.43;;
19705;SDS011;10003;52.506;4.700;2023-04-28T09:24:25;3.53;;;2.47;;
19705;SDS011;10003;52.506;4.700;2023-04-28T09:26:54;7.47;;;5.53;;
19705;SDS011;10003;52.506;4.700;2023-04-28T09:29:22;12.03;;;10.73;;
19705;SDS011;10003;52.506;4.700;2023-04-28T09:31:51;10.97;;;8.83;;
19705;SDS011;10003;52.506;4.700;2023-04-28T09:34:20;8.07;;;5.67;;
19705;SDS011;10003;52.506;4.700;2023-04-28T09:36:50;18.57;;;10.53;;
19705;SDS011;10003;52.506;4.700;2023-04-28T09:39:27;3.17;;;2.90;;
19705;SDS011;10003;52.506;4.700;2023-04-28T09:41:55;5.60;;;4.80;;
19705;SDS011;10003;52.506;4.700;2023-04-28T09:44:28;3.90;;;3.43;;
19705;SDS011;10003;52.506;4.700;2023-04-28T09:46:57;21.33;;;18.10;;
19705;SDS011;10003;52.506;4.700;2023-04-28T09:49:26;20.33;;;15.70;;
19705;SDS011;10003;52.506;4.700;2023-04-28T09:51:59;25.50;;;20.87;;
19705;SDS011;10003;52.506;4.700;2023-04-28T09:54:38;26.00;;;18.63;;
19705;SDS011;10003;52.506;4.700;2023-04-28T09:57:07;26.27;;;19.83;;
19705;SDS011;10003;52.506;4.700;2023-04-28T09:59:36;12.00;;;9.70;;
19705;SDS011;10003;52.506;4.700;2023-04-28T10:02:05;7.87;;;5.90;;
19705;SDS011;10003;52.506;4.700;2023-04-28T10:04:53;5.30;;;2.47;;
19705;SDS011;10003;52.506;4.700;2023-04-28T10:07:24;3.03;;;2.93;;
19705;SDS011;10003;52.506;4.700;2023-04-28T10:09:53;6.53;;;5.90;;
19705;SDS011;10003;52.506;4.700;2023-04-28T10:12:22;20.37;;;16.17;;
19705;SDS011;10003;52.506;4.700;2023-04-28T10:14:52;6.27;;;4.87;;
19705;SDS011;10003;52.506;4.700;2023-04-28T10:17:21;3.93;;;3.57;;
19705;SDS011;10003;52.506;4.700;2023-04-28T10:19:51;26.80;;;23.17;;
19705;SDS011;10003;52.506;4.700;2023-04-28T10:22:28;27.50;;;24.27;;
19705;SDS011;10003;52.506;4.700;2023-04-28T10:25:07;16.43;;;13.73;;
19705;SDS011;10003;52.506;4.700;2023-04-28T10:27:40;28.17;;;25.20;;
19705;SDS011;10003;52.506;4.700;2023-04-28T10:30:10;20.53;;;17.07;;
19705;SDS011;10003;52.506;4.700;2023-04-28T10:35:40;26.27;;;23.47;;
19705;SDS011;10003;52.506;4.700;2023-04-28T10:38:11;30.13;;;22.40;;
19705;SDS011;10003;52.506;4.700;2023-04-28T10:40:40;24.03;;;20.03;;
19705;SDS011;10003;52.506;4.700;2023-04-28T10:43:10;16.80;;;14.40;;
19705;SDS011;10003;52.506;4.700;2023-04-28T10:54:19;35.03;;;31.33;;
19705;SDS011;10003;52.506;4.700;2023-04-28T10:59:36;32.10;;;25.73;;
19705;SDS011;10003;52.506;4.700;2023-04-28T11:05:10;30.87;;;24.93;;
19705;SDS011;10003;52.506;4.700;2023-04-28T11:07:39;21.97;;;17.40;;
19705;SDS011;10003;52.506;4.700;2023-04-28T11:10:09;12.70;;;10.13;;
19705;SDS011;10003;52.506;4.700;2023-04-28T11:12:44;28.93;;;22.97;;
19705;SDS011;10003;52.506;4.700;2023-04-28T11:15:34;34.67;;;28.53;;
19705;SDS011;10003;52.506;4.700;2023-04-28T11:18:02;30.27;;;26.27;;
19705;SDS011;10003;52.506;4.700;2023-04-28T11:20:31;36.70;;;30.27;;
19705;SDS011;10003;52.506;4.700;2023-04-28T11:23:00;38.00;;;27.87;;
19705;SDS011;10003;52.506;4.700;2023-04-28T11:28:16;17.33;;;13.43;;
19705;SDS011;10003;52.506;4.700;2023-04-28T11:30:45;17.83;;;13.67;;
19705;SDS011;10003;52.506;4.700;2023-04-28T11:33:13;23.90;;;16.90;;
19705;SDS011;10003;52.506;4.700;2023-04-28T11:35:44;8.30;;;6.40;;
19705;SDS011;10003;52.506;4.700;2023-04-28T11:38:13;14.97;;;9.93;;
19705;SDS011;10003;52.506;4.700;2023-04-28T11:40:54;2.67;;;2.47;;
19705;SDS011;10003;52.506;4.700;2023-04-28T11:43:28;12.00;;;6.17;;
19705;SDS011;10003;52.506;4.700;2023-04-28T11:46:15;14.50;;;7.40;;
19705;SDS011;10003;52.506;4.700;2023-04-28T11:48:44;9.43;;;5.43;;
19705;SDS011;10003;52.506;4.700;2023-04-28T11:51:32;3.13;;;2.67;;
19705;SDS011;10003;52.506;4.700;2023-04-28T11:54:01;6.33;;;4.47;;
19705;SDS011;10003;52.506;4.700;2023-04-28T11:56:30;4.57;;;2.80;;
19705;SDS011;10003;52.506;4.700;2023-04-28T11:59:05;3.57;;;2.23;;
19705;SDS011;10003;52.506;4.700;2023-04-28T12:01:34;6.53;;;3.17;;
19705;SDS011;10003;52.506;4.700;2023-04-28T12:04:03;4.90;;;2.47;;
19705;SDS011;10003;52.506;4.700;2023-04-28T12:06:32;4.93;;;2.33;;
19705;SDS011;10003;52.506;4.700;2023-04-28T12:09:01;7.00;;;4.10;;
19705;SDS011;10003;52.506;4.700;2023-04-28T12:11:51;8.43;;;3.03;;
19705;SDS011;10003;52.506;4.700;2023-04-28T12:14:21;7.10;;;2.97;;
19705;SDS011;10003;52.506;4.700;2023-04-28T12:16:50;2.63;;;1.30;;
19705;SDS011;10003;52.506;4.700;2023-04-28T12:19:19;18.53;;;6.70;;
19705;SDS011;10003;52.506;4.700;2023-04-28T12:24:36;8.90;;;3.07;;
19705;SDS011;10003;52.506;4.700;2023-04-28T12:27:12;10.93;;;4.53;;
19705;SDS011;10003;52.506;4.700;2023-04-28T12:29:42;2.33;;;1.83;;
19705;SDS011;10003;52.506;4.700;2023-04-28T12:32:12;3.40;;;2.83;;
19705;SDS011;10003;52.506;4.700;2023-04-28T12:34:41;4.83;;;3.13;;
19705;SDS011;10003;52.506;4.700;2023-04-28T12:37:11;7.83;;;4.77;;
19705;SDS011;10003;52.506;4.700;2023-04-28T12:39:40;8.67;;;4.40;;
19705;SDS011;10003;52.506;4.700;2023-04-28T12:42:09;17.73;;;7.17;;
19705;SDS011;10003;52.506;4.700;2023-04-28T12:44:38;9.57;;;4.47;;
19705;SDS011;10003;52.506;4.700;2023-04-28T12:47:08;12.83;;;8.83;;
19705;SDS011;10003;52.506;4.700;2023-04-28T12:49:37;10.33;;;4.53;;
19705;SDS011;10003;52.506;4.700;2023-04-28T12:52:06;13.07;;;6.63;;
19705;SDS011;10003;52.506;4.700;2023-04-28T12:54:35;13.70;;;4.97;;
19705;SDS011;10003;52.506;4.700;2023-04-28T12:57:03;9.07;;;6.43;;
19705;SDS011;10003;52.506;4.700;2023-04-28T12:59:32;25.27;;;8.80;;
19705;SDS011;10003;52.506;4.700;2023-04-28T13:02:00;36.70;;;7.37;;
19705;SDS011;10003;52.506;4.700;2023-04-28T13:04:30;16.63;;;6.20;;
19705;SDS011;10003;52.506;4.700;2023-04-28T13:06:59;7.50;;;4.43;;
19705;SDS011;10003;52.506;4.700;2023-04-28T13:09:28;11.90;;;6.00;;
19705;SDS011;10003;52.506;4.700;2023-04-28T13:11:56;16.33;;;7.23;;
19705;SDS011;10003;52.506;4.700;2023-04-28T13:14:25;12.00;;;6.63;;
19705;SDS011;10003;52.506;4.700;2023-04-28T13:16:54;14.57;;;6.60;;
19705;SDS011;10003;52.506;4.700;2023-04-28T13:19:23;15.70;;;8.03;;
19705;SDS011;10003;52.506;4.700;2023-04-28T13:21:54;10.03;;;5.60;;
19705;SDS011;10003;52.506;4.700;2023-04-28T13:24:23;25.70;;;8.80;;
19705;SDS011;10003;52.506;4.700;2023-04-28T13:26:51;22.93;;;11.33;;
19705;SDS011;10003;52.506;4.700;2023-04-28T13:29:20;10.33;;;6.97;;
19705;SDS011;10003;52.506;4.700;2023-04-28T13:31:48;26.10;;;11.90;;
19705;SDS011;10003;52.506;4.700;2023-04-28T13:34:17;13.10;;;10.20;;
19705;SDS011;10003;52.506;4.700;2023-04-28T13:36:45;7.60;;;5.90;;
19705;SDS011;10003;52.506;4.700;2023-04-28T13:39:17;17.40;;;9.17;;
19705;SDS011;10003;52.506;4.700;2023-04-28T13:41:47;20.20;;;16.00;;
19705;SDS011;10003;52.506;4.700;2023-04-28T13:44:15;20.43;;;14.20;;
19705;SDS011;10003;52.506;4.700;2023-04-28T13:46:44;11.13;;;7.53;;
19705;SDS011;10003;52.506;4.700;2023-04-28T13:49:13;7.40;;;4.87;;
19705;SDS011;10003;52.506;4.700;2023-04-28T13:51:42;14.83;;;9.57;;
19705;SDS011;10003;52.506;4.700;2023-04-28T13:54:11;12.00;;;8.47;;
19705;SDS011;10003;52.506;4.700;2023-04-28T13:56:41;17.10;;;12.63;;
19705;SDS011;10003;52.506;4.700;2023-04-28T13:59:10;12.30;;;9.63;;
19705;SDS011;10003;52.506;4.700;2023-04-28T14:01:38;15.80;;;11.67;;
19705;SDS011;10003;52.506;4.700;2023-04-28T14:04:07;10.47;;;7.00;;
19705;SDS011;10003;52.506;4.700;2023-04-28T14:06:36;6.90;;;4.50;;
19705;SDS011;10003;52.506;4.700;2023-04-28T14:09:06;10.43;;;7.80;;
19705;SDS011;10003;52.506;4.700;2023-04-28T14:11:34;11.10;;;8.60;;
19705;SDS011;10003;52.506;4.700;2023-04-28T14:14:04;13.87;;;10.30;;
19705;SDS011;10003;52.506;4.700;2023-04-28T14:16:33;10.87;;;5.53;;
19705;SDS011;10003;52.506;4.700;2023-04-28T14:19:01;14.60;;;6.53;;
19705;SDS011;10003;52.506;4.700;2023-04-28T14:21:29;10.10;;;8.70;;
19705;SDS011;10003;52.506;4.700;2023-04-28T14:23:58;12.87;;;8.93;;
19705;SDS011;10003;52.506;4.700;2023-04-28T14:26:26;17.20;;;12.83;;
19705;SDS011;10003;52.506;4.700;2023-04-28T14:28:55;12.33;;;8.90;;
19705;SDS011;10003;52.506;4.700;2023-04-28T14:31:26;8.70;;;6.17;;
19705;SDS011;10003;52.506;4.700;2023-04-28T14:33:55;15.40;;;12.50;;
19705;SDS011;10003;52.506;4.700;2023-04-28T14:36:23;14.07;;;10.37;;
19705;SDS011;10003;52.506;4.700;2023-04-28T14:38:52;13.40;;;6.93;;
19705;SDS011;10003;52.506;4.700;2023-04-28T14:41:21;7.43;;;5.80;;
19705;SDS011;10003;52.506;4.700;2023-04-28T14:43:49;14.40;;;10.80;;
19705;SDS011;10003;52.506;4.700;2023-04-28T14:46:18;15.03;;;9.80;;
19705;SDS011;10003;52.506;4.700;2023-04-28T14:48:50;5.63;;;3.63;;
19705;SDS011;10003;52.506;4.700;2023-04-28T14:51:19;11.73;;;8.17;;
19705;SDS011;10003;52.506;4.700;2023-04-28T14:53:48;10.90;;;8.23;;
19705;SDS011;10003;52.506;4.700;2023-04-28T14:56:16;15.10;;;12.23;;
19705;SDS011;10003;52.506;4.700;2023-04-28T14:58:45;16.00;;;9.27;;
19705;SDS011;10003;52.506;4.700;2023-04-28T15:01:14;9.87;;;6.70;;
19705;SDS011;10003;52.506;4.700;2023-04-28T15:03:42;7.00;;;4.40;;
19705;SDS011;10003;52.506;4.700;2023-04-28T15:06:13;15.23;;;11.50;;
19705;SDS011;10003;52.506;4.700;2023-04-28T15:08:41;18.47;;;9.73;;
19705;SDS011;10003;52.506;4.700;2023-04-28T15:11:10;10.10;;;5.77;;
19705;SDS011;10003;52.506;4.700;2023-04-28T15:13:38;12.80;;;5.50;;
19705;SDS011;10003;52.506;4.700;2023-04-28T15:16:08;15.77;;;11.80;;